sensor_id;sensor_type;location;lat;lon;timestamp;P1;durP1;ratioP1;P2;durP2;ratioP2
21758;SDS011;11041;50.854;20.580;2023-04-24T00:00:59;17.58;;;12.85;;
21758;SDS011;11041;50.854;20.580;2023-04-24T00:03:26;16.77;;;12.35;;
21758;SDS011;11041;50.854;20.580;2023-04-24T00:05:53;14.60;;;12.63;;
21758;SDS011;11041;50.854;20.580;2023-04-24T00:08:20;18.77;;;12.90;;
21758;SDS011;11041;50.854;20.580;2023-04-24T00:10:48;17.08;;;13.05;;
21758;SDS011;11041;50.854;20.580;2023-04-24T00:13:14;19.98;;;12.68;;
21758;SDS011;11041;50.854;20.580;2023-04-24T00:15:41;17.00;;;13.23;;
21758;SDS011;11041;50.854;20.580;2023-04-24T00:18:07;18.38;;;12.32;;
21758;SDS011;11041;50.854;20.580;2023-04-24T00:20:34;15.80;;;12.70;;
21758;SDS011;11041;50.854;20.580;2023-04-24T00:23:03;14.65;;;11.75;;
21758;SDS011;11041;50.854;20.580;2023-04-24T00:25:30;14.70;;;12.15;;
21758;SDS011;11041;50.854;20.580;2023-04-24T00:27:56;15.77;;;11.88;;
21758;SDS011;11041;50.854;20.580;2023-04-24T00:30:23;16.60;;;12.25;;
21758;SDS011;11041;50.854;20.580;2023-04-24T00:32:49;16.05;;;12.43;;
21758;SDS011;11041;50.854;20.580;2023-04-24T00:35:16;20.35;;;13.25;;
21758;SDS011;11041;50.854;20.580;2023-04-24T00:37:42;15.55;;;11.90;;
21758;SDS011;11041;50.854;20.580;2023-04-24T00:40:09;18.13;;;12.23;;
21758;SDS011;11041;50.854;20.580;2023-04-24T00:42:36;15.38;;;12.80;;
21758;SDS011;11041;50.854;20.580;2023-04-24T00:45:03;17.10;;;12.18;;
21758;SDS011;11041;50.854;20.580;2023-04-24T00:47:30;16.55;;;12.73;;
21758;SDS011;11041;50.854;20.580;2023-04-24T00:50:06;18.88;;;12.15;;
21758;SDS011;11041;50.854;20.580;2023-04-24T00:52:33;16.33;;;11.65;;
21758;SDS011;11041;50.854;20.580;2023-04-24T00:55:00;14.80;;;11.77;;
21758;SDS011;11041;50.854;20.580;2023-04-24T00:57:26;14.60;;;11.73;;
21758;SDS011;11041;50.854;20.580;2023-04-24T00:59:53;17.35;;;11.98;;
21758;SDS011;11041;50.854;20.580;2023-04-24T01:02:21;16.40;;;12.35;;
21758;SDS011;11041;50.854;20.580;2023-04-24T01:04:49;15.43;;;12.30;;
21758;SDS011;11041;50.854;20.580;2023-04-24T01:07:21;15.05;;;11.48;;
21758;SDS011;11041;50.854;20.580;2023-04-24T01:09:48;18.30;;;12.25;;
21758;SDS011;11041;50.854;20.580;2023-04-24T01:12:17;20.77;;;12.43;;
21758;SDS011;11041;50.854;20.580;2023-04-24T01:14:45;16.73;;;12.27;;
21758;SDS011;11041;50.854;20.580;2023-04-24T01:17:11;17.77;;;12.57;;
21758;SDS011;11041;50.854;20.580;2023-04-24T01:19:38;16.35;;;11.00;;
21758;SDS011;11041;50.854;20.580;2023-04-24T01:22:12;15.13;;;11.45;;
21758;SDS011;11041;50.854;20.580;2023-04-24T01:24:40;15.38;;;11.65;;
21758;SDS011;11041;50.854;20.580;2023-04-24T01:27:09;17.60;;;12.50;;
21758;SDS011;11041;50.854;20.580;2023-04-24T01:29:37;17.33;;;12.30;;
21758;SDS011;11041;50.854;20.580;2023-04-24T01:32:04;16.23;;;12.15;;
21758;SDS011;11041;50.854;20.580;2023-04-24T01:34:32;15.85;;;11.93;;
21758;SDS011;11041;50.854;20.580;2023-04-24T01:37:00;18.08;;;12.68;;
21758;SDS011;11041;50.854;20.580;2023-04-24T01:39:27;16.10;;;12.73;;
21758;SDS011;11041;50.854;20.580;2023-04-24T01:41:54;15.95;;;13.10;;
21758;SDS011;11041;50.854;20.580;2023-04-24T01:44:21;19.27;;;12.82;;
21758;SDS011;11041;50.854;20.580;2023-04-24T01:46:49;16.55;;;12.95;;
21758;SDS011;11041;50.854;20.580;2023-04-24T01:49:16;19.05;;;14.07;;
21758;SDS011;11041;50.854;20.580;2023-04-24T01:51:42;17.02;;;13.25;;
21758;SDS011;11041;50.854;20.580;2023-04-24T01:54:10;16.35;;;13.35;;
21758;SDS011;11041;50.854;20.580;2023-04-24T01:56:36;18.33;;;13.30;;
21758;SDS011;11041;50.854;20.580;2023-04-24T01:59:10;15.70;;;12.35;;
21758;SDS011;11041;50.854;20.580;2023-04-24T02:01:38;19.88;;;12.77;;
21758;SDS011;11041;50.854;20.580;2023-04-24T02:04:05;18.42;;;12.30;;
21758;SDS011;11041;50.854;20.580;2023-04-24T02:06:34;20.85;;;13.32;;
21758;SDS011;11041;50.854;20.580;2023-04-24T02:09:01;18.88;;;13.57;;
21758;SDS011;11041;50.854;20.580;2023-04-24T02:11:28;19.65;;;12.98;;
21758;SDS011;11041;50.854;20.580;2023-04-24T02:13:55;25.98;;;12.52;;
21758;SDS011;11041;50.854;20.580;2023-04-24T02:16:22;18.48;;;13.15;;
21758;SDS011;11041;50.854;20.580;2023-04-24T02:18:48;23.85;;;12.57;;
21758;SDS011;11041;50.854;20.580;2023-04-24T02:21:15;32.42;;;14.05;;
21758;SDS011;11041;50.854;20.580;2023-04-24T02:23:42;27.50;;;13.40;;
21758;SDS011;11041;50.854;20.580;2023-04-24T02:26:08;18.95;;;12.43;;
21758;SDS011;11041;50.854;20.580;2023-04-24T02:28:35;22.25;;;12.75;;
21758;SDS011;11041;50.854;20.580;2023-04-24T02:31:01;21.15;;;12.73;;
21758;SDS011;11041;50.854;20.580;2023-04-24T02:33:28;19.08;;;12.07;;
21758;SDS011;11041;50.854;20.580;2023-04-24T02:35:54;17.33;;;11.90;;
21758;SDS011;11041;50.854;20.580;2023-04-24T02:38:21;16.88;;;12.10;;
21758;SDS011;11041;50.854;20.580;2023-04-24T02:40:47;17.60;;;12.07;;
21758;SDS011;11041;50.854;20.580;2023-04-24T02:43:14;18.63;;;12.20;;
21758;SDS011;11041;50.854;20.580;2023-04-24T02:45:40;17.75;;;12.60;;
21758;SDS011;11041;50.854;20.580;2023-04-24T02:48:07;14.50;;;11.68;;
21758;SDS011;11041;50.854;20.580;2023-04-24T02:50:33;15.45;;;12.38;;
21758;SDS011;11041;50.854;20.580;2023-04-24T02:53:00;15.75;;;12.20;;
21758;SDS011;11041;50.854;20.580;2023-04-24T02:55:26;17.13;;;12.48;;
21758;SDS011;11041;50.854;20.580;2023-04-24T02:57:53;15.02;;;12.25;;
21758;SDS011;11041;50.854;20.580;2023-04-24T03:00:20;17.35;;;12.60;;
21758;SDS011;11041;50.854;20.580;2023-04-24T03:02:46;17.38;;;13.15;;
21758;SDS011;11041;50.854;20.580;2023-04-24T03:05:15;16.88;;;12.77;;
21758;SDS011;11041;50.854;20.580;2023-04-24T03:07:41;18.13;;;12.25;;
21758;SDS011;11041;50.854;20.580;2023-04-24T03:10:08;14.65;;;11.75;;
21758;SDS011;11041;50.854;20.580;2023-04-24T03:12:35;17.88;;;12.57;;
21758;SDS011;11041;50.854;20.580;2023-04-24T03:15:01;23.10;;;13.38;;
21758;SDS011;11041;50.854;20.580;2023-04-24T03:17:28;17.25;;;14.10;;
21758;SDS011;11041;50.854;20.580;2023-04-24T03:19:55;16.58;;;13.10;;
21758;SDS011;11041;50.854;20.580;2023-04-24T03:22:21;20.73;;;13.95;;
21758;SDS011;11041;50.854;20.580;2023-04-24T03:24:48;20.08;;;13.88;;
21758;SDS011;11041;50.854;20.580;2023-04-24T03:27:14;20.17;;;14.45;;
21758;SDS011;11041;50.854;20.580;2023-04-24T03:29:41;17.60;;;14.18;;
21758;SDS011;11041;50.854;20.580;2023-04-24T03:32:07;18.15;;;14.25;;
21758;SDS011;11041;50.854;20.580;2023-04-24T03:34:34;18.98;;;13.68;;
21758;SDS011;11041;50.854;20.580;2023-04-24T03:37:00;19.60;;;15.25;;
21758;SDS011;11041;50.854;20.580;2023-04-24T03:39:27;17.67;;;13.52;;
21758;SDS011;11041;50.854;20.580;2023-04-24T03:41:54;15.82;;;13.07;;
21758;SDS011;11041;50.854;20.580;2023-04-24T03:44:20;19.30;;;14.48;;
21758;SDS011;11041;50.854;20.580;2023-04-24T03:46:47;16.50;;;12.45;;
21758;SDS011;11041;50.854;20.580;2023-04-24T03:49:13;20.40;;;13.70;;
21758;SDS011;11041;50.854;20.580;2023-04-24T03:51:40;17.40;;;13.18;;
21758;SDS011;11041;50.854;20.580;2023-04-24T03:54:06;18.65;;;13.23;;
21758;SDS011;11041;50.854;20.580;2023-04-24T03:56:32;24.20;;;14.05;;
21758;SDS011;11041;50.854;20.580;2023-04-24T03:58:59;28.17;;;14.45;;
21758;SDS011;11041;50.854;20.580;2023-04-24T04:01:26;27.35;;;15.90;;
21758;SDS011;11041;50.854;20.580;2023-04-24T04:03:54;26.58;;;15.05;;
21758;SDS011;11041;50.854;20.580;2023-04-24T04:06:20;18.02;;;14.38;;
21758;SDS011;11041;50.854;20.580;2023-04-24T04:08:47;16.73;;;13.98;;
21758;SDS011;11041;50.854;20.580;2023-04-24T04:11:14;19.67;;;12.93;;
21758;SDS011;11041;50.854;20.580;2023-04-24T04:13:40;18.45;;;14.20;;
21758;SDS011;11041;50.854;20.580;2023-04-24T04:16:07;17.83;;;13.77;;
21758;SDS011;11041;50.854;20.580;2023-04-24T04:18:34;16.00;;;13.25;;
21758;SDS011;11041;50.854;20.580;2023-04-24T04:21:02;19.38;;;14.15;;
21758;SDS011;11041;50.854;20.580;2023-04-24T04:23:28;21.48;;;14.80;;
21758;SDS011;11041;50.854;20.580;2023-04-24T04:25:55;19.15;;;14.98;;
21758;SDS011;11041;50.854;20.580;2023-04-24T04:28:21;21.58;;;14.25;;
21758;SDS011;11041;50.854;20.580;2023-04-24T04:30:50;20.05;;;14.63;;
21758;SDS011;11041;50.854;20.580;2023-04-24T04:33:19;25.98;;;15.85;;
21758;SDS011;11041;50.854;20.580;2023-04-24T04:35:47;17.67;;;14.52;;
21758;SDS011;11041;50.854;20.580;2023-04-24T04:38:19;21.95;;;14.52;;
21758;SDS011;11041;50.854;20.580;2023-04-24T04:40:46;21.92;;;15.32;;
21758;SDS011;11041;50.854;20.580;2023-04-24T04:43:12;21.35;;;14.98;;
21758;SDS011;11041;50.854;20.580;2023-04-24T04:45:40;20.15;;;14.85;;
21758;SDS011;11041;50.854;20.580;2023-04-24T04:48:09;21.30;;;14.43;;
21758;SDS011;11041;50.854;20.580;2023-04-24T04:50:38;20.35;;;14.82;;
21758;SDS011;11041;50.854;20.580;2023-04-24T04:53:04;23.98;;;15.82;;
21758;SDS011;11041;50.854;20.580;2023-04-24T04:55:32;22.45;;;15.75;;
21758;SDS011;11041;50.854;20.580;2023-04-24T04:57:59;24.02;;;17.17;;
21758;SDS011;11041;50.854;20.580;2023-04-24T05:00:25;32.67;;;18.27;;
21758;SDS011;11041;50.854;20.580;2023-04-24T05:02:54;28.58;;;17.75;;
21758;SDS011;11041;50.854;20.580;2023-04-24T05:05:20;34.50;;;17.27;;
21758;SDS011;11041;50.854;20.580;2023-04-24T05:07:47;33.10;;;16.67;;
21758;SDS011;11041;50.854;20.580;2023-04-24T05:10:13;26.73;;;16.08;;
21758;SDS011;11041;50.854;20.580;2023-04-24T05:12:40;27.45;;;15.50;;
21758;SDS011;11041;50.854;20.580;2023-04-24T05:15:07;32.33;;;15.57;;
21758;SDS011;11041;50.854;20.580;2023-04-24T05:17:34;18.70;;;12.52;;
21758;SDS011;11041;50.854;20.580;2023-04-24T05:20:01;19.40;;;13.90;;
21758;SDS011;11041;50.854;20.580;2023-04-24T05:22:31;39.72;;;15.85;;
21758;SDS011;11041;50.854;20.580;2023-04-24T05:24:57;39.38;;;14.93;;
21758;SDS011;11041;50.854;20.580;2023-04-24T05:27:24;35.42;;;14.00;;
21758;SDS011;11041;50.854;20.580;2023-04-24T05:29:50;35.75;;;14.90;;
21758;SDS011;11041;50.854;20.580;2023-04-24T05:32:17;28.77;;;13.32;;
21758;SDS011;11041;50.854;20.580;2023-04-24T05:34:43;31.17;;;13.10;;
21758;SDS011;11041;50.854;20.580;2023-04-24T05:37:10;23.38;;;12.48;;
21758;SDS011;11041;50.854;20.580;2023-04-24T05:39:36;22.77;;;10.73;;
21758;SDS011;11041;50.854;20.580;2023-04-24T05:42:03;32.42;;;13.25;;
21758;SDS011;11041;50.854;20.580;2023-04-24T05:44:30;17.90;;;12.75;;
21758;SDS011;11041;50.854;20.580;2023-04-24T05:46:56;15.57;;;11.43;;
21758;SDS011;11041;50.854;20.580;2023-04-24T05:49:23;11.52;;;8.90;;
21758;SDS011;11041;50.854;20.580;2023-04-24T05:51:49;10.45;;;8.43;;
21758;SDS011;11041;50.854;20.580;2023-04-24T05:54:16;14.80;;;8.25;;
21758;SDS011;11041;50.854;20.580;2023-04-24T05:56:42;14.63;;;8.23;;
21758;SDS011;11041;50.854;20.580;2023-04-24T05:59:09;21.83;;;8.95;;
21758;SDS011;11041;50.854;20.580;2023-04-24T06:01:36;12.20;;;7.97;;
21758;SDS011;11041;50.854;20.580;2023-04-24T06:04:03;13.73;;;8.15;;
21758;SDS011;11041;50.854;20.580;2023-04-24T06:06:30;15.18;;;7.80;;
21758;SDS011;11041;50.854;20.580;2023-04-24T06:08:57;15.10;;;8.38;;
21758;SDS011;11041;50.854;20.580;2023-04-24T06:11:24;9.02;;;7.15;;
21758;SDS011;11041;50.854;20.580;2023-04-24T06:13:51;13.63;;;7.78;;
21758;SDS011;11041;50.854;20.580;2023-04-24T06:16:17;11.07;;;7.47;;
21758;SDS011;11041;50.854;20.580;2023-04-24T06:18:44;9.65;;;6.60;;
21758;SDS011;11041;50.854;20.580;2023-04-24T06:21:12;8.77;;;7.10;;
21758;SDS011;11041;50.854;20.580;2023-04-24T06:23:39;11.32;;;7.13;;
21758;SDS011;11041;50.854;20.580;2023-04-24T06:26:06;8.57;;;6.93;;
21758;SDS011;11041;50.854;20.580;2023-04-24T06:28:32;9.45;;;7.18;;
21758;SDS011;11041;50.854;20.580;2023-04-24T06:30:58;11.20;;;7.25;;
21758;SDS011;11041;50.854;20.580;2023-04-24T06:33:25;10.75;;;7.00;;
21758;SDS011;11041;50.854;20.580;2023-04-24T06:35:52;11.05;;;6.90;;
21758;SDS011;11041;50.854;20.580;2023-04-24T06:38:18;13.43;;;7.40;;
21758;SDS011;11041;50.854;20.580;2023-04-24T06:40:45;13.48;;;7.38;;
21758;SDS011;11041;50.854;20.580;2023-04-24T06:43:11;13.68;;;7.50;;
21758;SDS011;11041;50.854;20.580;2023-04-24T06:45:38;9.85;;;7.22;;
21758;SDS011;11041;50.854;20.580;2023-04-24T06:48:05;10.10;;;6.75;;
21758;SDS011;11041;50.854;20.580;2023-04-24T06:50:31;7.63;;;6.78;;
21758;SDS011;11041;50.854;20.580;2023-04-24T06:52:58;12.43;;;7.10;;
21758;SDS011;11041;50.854;20.580;2023-04-24T06:55:24;13.85;;;6.82;;
21758;SDS011;11041;50.854;20.580;2023-04-24T06:57:51;13.48;;;6.75;;
21758;SDS011;11041;50.854;20.580;2023-04-24T07:00:17;18.40;;;6.30;;
21758;SDS011;11041;50.854;20.580;2023-04-24T07:02:44;10.60;;;6.80;;
21758;SDS011;11041;50.854;20.580;2023-04-24T07:05:11;9.82;;;6.38;;
21758;SDS011;11041;50.854;20.580;2023-04-24T07:07:38;11.38;;;7.00;;
21758;SDS011;11041;50.854;20.580;2023-04-24T07:10:05;16.42;;;6.63;;
21758;SDS011;11041;50.854;20.580;2023-04-24T07:12:34;9.73;;;6.95;;
21758;SDS011;11041;50.854;20.580;2023-04-24T07:15:01;10.63;;;6.57;;
21758;SDS011;11041;50.854;20.580;2023-04-24T07:17:28;9.23;;;6.65;;
21758;SDS011;11041;50.854;20.580;2023-04-24T07:19:55;7.75;;;5.93;;
21758;SDS011;11041;50.854;20.580;2023-04-24T07:22:21;11.88;;;6.95;;
21758;SDS011;11041;50.854;20.580;2023-04-24T07:24:48;7.78;;;6.43;;
21758;SDS011;11041;50.854;20.580;2023-04-24T07:27:15;10.40;;;5.78;;
21758;SDS011;11041;50.854;20.580;2023-04-24T07:29:42;19.45;;;7.40;;
21758;SDS011;11041;50.854;20.580;2023-04-24T07:32:08;8.10;;;6.55;;
21758;SDS011;11041;50.854;20.580;2023-04-24T07:34:35;8.60;;;6.05;;
21758;SDS011;11041;50.854;20.580;2023-04-24T07:37:01;11.02;;;6.63;;
21758;SDS011;11041;50.854;20.580;2023-04-24T07:39:28;8.85;;;7.00;;
21758;SDS011;11041;50.854;20.580;2023-04-24T07:41:55;14.88;;;7.03;;
21758;SDS011;11041;50.854;20.580;2023-04-24T07:44:22;10.43;;;5.88;;
21758;SDS011;11041;50.854;20.580;2023-04-24T07:46:48;11.02;;;6.65;;
21758;SDS011;11041;50.854;20.580;2023-04-24T07:49:15;10.98;;;6.47;;
21758;SDS011;11041;50.854;20.580;2023-04-24T07:51:41;11.07;;;6.15;;
21758;SDS011;11041;50.854;20.580;2023-04-24T07:54:08;8.50;;;6.05;;
21758;SDS011;11041;50.854;20.580;2023-04-24T07:56:35;9.50;;;6.40;;
21758;SDS011;11041;50.854;20.580;2023-04-24T07:59:04;11.32;;;5.93;;
21758;SDS011;11041;50.854;20.580;2023-04-24T08:01:31;7.25;;;5.70;;
21758;SDS011;11041;50.854;20.580;2023-04-24T08:03:58;13.18;;;6.10;;
21758;SDS011;11041;50.854;20.580;2023-04-24T08:06:25;7.13;;;5.55;;
21758;SDS011;11041;50.854;20.580;2023-04-24T08:08:56;11.75;;;6.05;;
21758;SDS011;11041;50.854;20.580;2023-04-24T08:11:22;13.75;;;5.60;;
21758;SDS011;11041;50.854;20.580;2023-04-24T08:13:49;7.03;;;4.82;;
21758;SDS011;11041;50.854;20.580;2023-04-24T08:16:16;10.82;;;5.65;;
21758;SDS011;11041;50.854;20.580;2023-04-24T08:18:42;9.65;;;5.40;;
21758;SDS011;11041;50.854;20.580;2023-04-24T08:21:09;7.05;;;5.20;;
21758;SDS011;11041;50.854;20.580;2023-04-24T08:23:37;7.22;;;5.32;;
21758;SDS011;11041;50.854;20.580;2023-04-24T08:26:03;6.40;;;5.40;;
21758;SDS011;11041;50.854;20.580;2023-04-24T08:28:30;8.88;;;5.20;;
21758;SDS011;11041;50.854;20.580;2023-04-24T08:30:57;8.27;;;4.95;;
21758;SDS011;11041;50.854;20.580;2023-04-24T08:33:24;7.35;;;4.85;;
21758;SDS011;11041;50.854;20.580;2023-04-24T08:35:50;5.82;;;5.13;;
21758;SDS011;11041;50.854;20.580;2023-04-24T08:38:18;6.47;;;4.55;;
21758;SDS011;11041;50.854;20.580;2023-04-24T08:40:44;5.53;;;4.30;;
21758;SDS011;11041;50.854;20.580;2023-04-24T08:43:15;4.60;;;3.05;;
21758;SDS011;11041;50.854;20.580;2023-04-24T08:45:42;5.43;;;3.45;;
21758;SDS011;11041;50.854;20.580;2023-04-24T08:48:09;5.05;;;3.70;;
21758;SDS011;11041;50.854;20.580;2023-04-24T08:50:36;4.45;;;3.53;;
21758;SDS011;11041;50.854;20.580;2023-04-24T08:53:04;5.43;;;3.67;;
21758;SDS011;11041;50.854;20.580;2023-04-24T08:55:33;4.88;;;3.60;;
21758;SDS011;11041;50.854;20.580;2023-04-24T08:58:01;6.40;;;3.78;;
21758;SDS011;11041;50.854;20.580;2023-04-24T09:00:29;4.00;;;3.50;;
21758;SDS011;11041;50.854;20.580;2023-04-24T09:02:57;3.88;;;2.80;;
21758;SDS011;11041;50.854;20.580;2023-04-24T09:05:27;6.68;;;3.70;;
21758;SDS011;11041;50.854;20.580;2023-04-24T09:07:54;5.07;;;3.58;;
21758;SDS011;11041;50.854;20.580;2023-04-24T09:10:23;4.18;;;3.70;;
21758;SDS011;11041;50.854;20.580;2023-04-24T09:12:52;7.15;;;3.50;;
21758;SDS011;11041;50.854;20.580;2023-04-24T09:15:20;8.65;;;3.33;;
21758;SDS011;11041;50.854;20.580;2023-04-24T09:17:47;3.25;;;2.95;;
21758;SDS011;11041;50.854;20.580;2023-04-24T09:20:14;4.10;;;3.47;;
21758;SDS011;11041;50.854;20.580;2023-04-24T09:22:41;7.38;;;3.35;;
21758;SDS011;11041;50.854;20.580;2023-04-24T09:25:10;5.03;;;3.47;;
21758;SDS011;11041;50.854;20.580;2023-04-24T09:27:41;5.53;;;3.75;;
21758;SDS011;11041;50.854;20.580;2023-04-24T09:30:11;10.50;;;3.85;;
21758;SDS011;11041;50.854;20.580;2023-04-24T09:32:38;5.50;;;4.07;;
21758;SDS011;11041;50.854;20.580;2023-04-24T09:35:12;4.32;;;3.63;;
21758;SDS011;11041;50.854;20.580;2023-04-24T09:37:42;5.03;;;3.60;;
21758;SDS011;11041;50.854;20.580;2023-04-24T09:40:15;6.07;;;3.58;;
21758;SDS011;11041;50.854;20.580;2023-04-24T09:42:54;4.95;;;3.75;;
21758;SDS011;11041;50.854;20.580;2023-04-24T09:45:28;4.55;;;3.78;;
21758;SDS011;11041;50.854;20.580;2023-04-24T09:48:02;4.63;;;3.90;;
21758;SDS011;11041;50.854;20.580;2023-04-24T09:50:30;6.13;;;4.00;;
21758;SDS011;11041;50.854;20.580;2023-04-24T09:53:04;6.82;;;3.70;;
21758;SDS011;11041;50.854;20.580;2023-04-24T09:55:39;7.85;;;4.20;;
21758;SDS011;11041;50.854;20.580;2023-04-24T09:58:16;6.72;;;4.32;;
21758;SDS011;11041;50.854;20.580;2023-04-24T10:00:42;5.75;;;4.43;;
21758;SDS011;11041;50.854;20.580;2023-04-24T10:03:11;7.88;;;3.67;;
21758;SDS011;11041;50.854;20.580;2023-04-24T10:05:38;4.57;;;3.38;;
21758;SDS011;11041;50.854;20.580;2023-04-24T10:08:08;9.38;;;4.38;;
21758;SDS011;11041;50.854;20.580;2023-04-24T10:10:41;7.97;;;4.47;;
21758;SDS011;11041;50.854;20.580;2023-04-24T10:13:12;18.50;;;5.75;;
21758;SDS011;11041;50.854;20.580;2023-04-24T10:15:43;6.63;;;4.07;;
21758;SDS011;11041;50.854;20.580;2023-04-24T10:18:10;8.88;;;4.82;;
21758;SDS011;11041;50.854;20.580;2023-04-24T10:20:38;4.82;;;3.65;;
21758;SDS011;11041;50.854;20.580;2023-04-24T10:23:06;8.02;;;4.20;;
21758;SDS011;11041;50.854;20.580;2023-04-24T10:25:34;7.95;;;3.72;;
21758;SDS011;11041;50.854;20.580;2023-04-24T10:28:02;5.15;;;3.67;;
21758;SDS011;11041;50.854;20.580;2023-04-24T10:30:31;5.97;;;4.05;;
21758;SDS011;11041;50.854;20.580;2023-04-24T10:33:03;5.82;;;3.83;;
21758;SDS011;11041;50.854;20.580;2023-04-24T10:35:40;4.25;;;3.83;;
21758;SDS011;11041;50.854;20.580;2023-04-24T10:38:17;5.28;;;3.97;;
21758;SDS011;11041;50.854;20.580;2023-04-24T10:40:50;7.38;;;3.65;;
21758;SDS011;11041;50.854;20.580;2023-04-24T10:43:17;5.40;;;3.80;;
21758;SDS011;11041;50.854;20.580;2023-04-24T10:48:32;10.48;;;4.20;;
21758;SDS011;11041;50.854;20.580;2023-04-24T10:50:59;7.53;;;3.88;;
21758;SDS011;11041;50.854;20.580;2023-04-24T10:53:27;7.40;;;3.92;;
21758;SDS011;11041;50.854;20.580;2023-04-24T10:55:57;5.43;;;3.42;;
21758;SDS011;11041;50.854;20.580;2023-04-24T10:58:36;5.95;;;4.97;;
21758;SDS011;11041;50.854;20.580;2023-04-24T11:01:06;7.45;;;4.22;;
21758;SDS011;11041;50.854;20.580;2023-04-24T11:03:33;7.53;;;3.90;;
21758;SDS011;11041;50.854;20.580;2023-04-24T11:06:08;4.32;;;3.78;;
21758;SDS011;11041;50.854;20.580;2023-04-24T11:11:11;5.88;;;3.60;;
21758;SDS011;11041;50.854;20.580;2023-04-24T11:21:43;7.95;;;3.85;;
21758;SDS011;11041;50.854;20.580;2023-04-24T11:24:29;5.72;;;4.10;;
21758;SDS011;11041;50.854;20.580;2023-04-24T11:32:52;7.30;;;4.40;;
21758;SDS011;11041;50.854;20.580;2023-04-24T11:35:44;14.63;;;5.00;;
21758;SDS011;11041;50.854;20.580;2023-04-24T11:38:35;4.82;;;4.32;;
21758;SDS011;11041;50.854;20.580;2023-04-24T11:41:26;5.63;;;4.30;;
21758;SDS011;11041;50.854;20.580;2023-04-24T11:44:19;13.40;;;4.43;;
21758;SDS011;11041;50.854;20.580;2023-04-24T11:47:15;6.10;;;4.18;;
21758;SDS011;11041;50.854;20.580;2023-04-24T11:50:07;5.68;;;4.43;;
21758;SDS011;11041;50.854;20.580;2023-04-24T11:53:04;6.05;;;4.72;;
21758;SDS011;11041;50.854;20.580;2023-04-24T11:55:55;6.95;;;4.07;;
21758;SDS011;11041;50.854;20.580;2023-04-24T11:58:46;4.00;;;3.60;;
21758;SDS011;11041;50.854;20.580;2023-04-24T12:01:45;5.55;;;4.05;;
21758;SDS011;11041;50.854;20.580;2023-04-24T12:16:57;4.75;;;3.33;;
21758;SDS011;11041;50.854;20.580;2023-04-24T12:19:24;3.85;;;3.55;;
21758;SDS011;11041;50.854;20.580;2023-04-24T12:22:03;7.60;;;3.60;;
21758;SDS011;11041;50.854;20.580;2023-04-24T12:24:31;5.80;;;3.53;;
21758;SDS011;11041;50.854;20.580;2023-04-24T12:26:58;16.65;;;3.70;;
21758;SDS011;11041;50.854;20.580;2023-04-24T12:29:26;8.60;;;3.95;;
21758;SDS011;11041;50.854;20.580;2023-04-24T12:31:53;14.73;;;4.07;;
21758;SDS011;11041;50.854;20.580;2023-04-24T12:34:21;5.68;;;3.03;;
21758;SDS011;11041;50.854;20.580;2023-04-24T12:36:50;5.65;;;3.60;;
21758;SDS011;11041;50.854;20.580;2023-04-24T12:39:18;4.43;;;2.92;;
21758;SDS011;11041;50.854;20.580;2023-04-24T12:41:58;3.90;;;3.50;;
21758;SDS011;11041;50.854;20.580;2023-04-24T12:44:35;3.17;;;2.88;;
21758;SDS011;11041;50.854;20.580;2023-04-24T12:47:03;3.92;;;3.20;;
21758;SDS011;11041;50.854;20.580;2023-04-24T12:49:30;4.68;;;3.45;;
21758;SDS011;11041;50.854;20.580;2023-04-24T12:51:57;8.13;;;3.80;;
21758;SDS011;11041;50.854;20.580;2023-04-24T12:54:23;5.50;;;4.00;;
21758;SDS011;11041;50.854;20.580;2023-04-24T12:56:50;6.95;;;3.85;;
21758;SDS011;11041;50.854;20.580;2023-04-24T12:59:17;4.65;;;3.58;;
21758;SDS011;11041;50.854;20.580;2023-04-24T13:01:43;11.85;;;3.92;;
21758;SDS011;11041;50.854;20.580;2023-04-24T13:04:10;3.78;;;3.33;;
21758;SDS011;11041;50.854;20.580;2023-04-24T13:06:37;3.70;;;3.40;;
21758;SDS011;11041;50.854;20.580;2023-04-24T13:09:03;5.47;;;3.78;;
21758;SDS011;11041;50.854;20.580;2023-04-24T13:11:30;5.28;;;4.20;;
21758;SDS011;11041;50.854;20.580;2023-04-24T13:13:56;6.85;;;3.97;;
21758;SDS011;11041;50.854;20.580;2023-04-24T13:16:23;4.13;;;3.65;;
21758;SDS011;11041;50.854;20.580;2023-04-24T13:18:50;5.28;;;3.60;;
21758;SDS011;11041;50.854;20.580;2023-04-24T13:21:16;6.80;;;3.90;;
21758;SDS011;11041;50.854;20.580;2023-04-24T13:23:42;5.45;;;4.13;;
21758;SDS011;11041;50.854;20.580;2023-04-24T13:26:09;9.68;;;4.65;;
21758;SDS011;11041;50.854;20.580;2023-04-24T13:28:36;7.82;;;4.70;;
21758;SDS011;11041;50.854;20.580;2023-04-24T13:31:04;6.47;;;4.40;;
21758;SDS011;11041;50.854;20.580;2023-04-24T13:33:31;4.57;;;4.10;;
21758;SDS011;11041;50.854;20.580;2023-04-24T13:35:58;5.90;;;3.92;;
21758;SDS011;11041;50.854;20.580;2023-04-24T13:38:25;5.40;;;3.92;;
21758;SDS011;11041;50.854;20.580;2023-04-24T13:40:51;6.32;;;3.80;;
21758;SDS011;11041;50.854;20.580;2023-04-24T13:43:18;6.10;;;3.80;;
21758;SDS011;11041;50.854;20.580;2023-04-24T13:45:44;6.75;;;4.13;;
21758;SDS011;11041;50.854;20.580;2023-04-24T13:48:11;8.13;;;3.70;;
21758;SDS011;11041;50.854;20.580;2023-04-24T13:50:41;8.10;;;4.20;;
21758;SDS011;11041;50.854;20.580;2023-04-24T13:53:08;5.30;;;3.75;;
21758;SDS011;11041;50.854;20.580;2023-04-24T13:55:35;4.47;;;3.53;;
21758;SDS011;11041;50.854;20.580;2023-04-24T13:58:02;18.15;;;4.63;;
21758;SDS011;11041;50.854;20.580;2023-04-24T14:00:28;7.07;;;3.67;;
21758;SDS011;11041;50.854;20.580;2023-04-24T14:02:55;4.32;;;3.47;;
21758;SDS011;11041;50.854;20.580;2023-04-24T14:05:22;3.78;;;3.47;;
21758;SDS011;11041;50.854;20.580;2023-04-24T14:07:48;8.05;;;3.63;;
21758;SDS011;11041;50.854;20.580;2023-04-24T14:10:17;5.65;;;4.25;;
21758;SDS011;11041;50.854;20.580;2023-04-24T14:12:44;5.03;;;4.15;;
21758;SDS011;11041;50.854;20.580;2023-04-24T14:15:10;5.53;;;4.03;;
21758;SDS011;11041;50.854;20.580;2023-04-24T14:17:39;4.57;;;3.97;;
21758;SDS011;11041;50.854;20.580;2023-04-24T14:20:06;7.47;;;4.28;;
21758;SDS011;11041;50.854;20.580;2023-04-24T14:22:34;7.32;;;4.47;;
21758;SDS011;11041;50.854;20.580;2023-04-24T14:25:00;5.10;;;3.95;;
21758;SDS011;11041;50.854;20.580;2023-04-24T14:27:27;8.88;;;3.95;;
21758;SDS011;11041;50.854;20.580;2023-04-24T14:29:54;7.13;;;4.30;;
21758;SDS011;11041;50.854;20.580;2023-04-24T14:32:21;4.68;;;4.15;;
21758;SDS011;11041;50.854;20.580;2023-04-24T14:34:47;5.50;;;4.18;;
21758;SDS011;11041;50.854;20.580;2023-04-24T14:37:14;4.95;;;3.95;;
21758;SDS011;11041;50.854;20.580;2023-04-24T14:39:41;7.28;;;4.63;;
21758;SDS011;11041;50.854;20.580;2023-04-24T14:42:07;6.65;;;4.47;;
21758;SDS011;11041;50.854;20.580;2023-04-24T14:44:34;6.70;;;4.65;;
21758;SDS011;11041;50.854;20.580;2023-04-24T14:47:00;4.85;;;4.38;;
21758;SDS011;11041;50.854;20.580;2023-04-24T14:49:27;6.30;;;4.57;;
21758;SDS011;11041;50.854;20.580;2023-04-24T14:51:53;6.35;;;4.78;;
21758;SDS011;11041;50.854;20.580;2023-04-24T14:54:20;7.22;;;4.70;;
21758;SDS011;11041;50.854;20.580;2023-04-24T14:56:48;7.97;;;4.68;;
21758;SDS011;11041;50.854;20.580;2023-04-24T14:59:16;6.22;;;4.70;;